Atlantic Elm — 9HA3054 — position and weather

sailwx.info

Track history (hours):
 
Tides and Currents Weather Stations Pressure Air Temp Water Temp Dewpoint Dewpoint Depression Visibility Wind Speed Wind Dir Waves Ship Positions

Atlantic Elm

Last reported at 2015-Apr-10 16:16 UTC. Time now 2015-May-05 10:13 UTC.
Position N 35°59' W 005°31'.
Warning: this ship's position is 24 days out of date.

Length 190 m; draft 6.3 m.

Type: Cargo ship. MMSI: 229081000.

Date/timePositionNaut miles runAvg speedWind from/ knotsBaromVisibWave heightAir tempDewpointWater temp
2015-Apr-10 16:16N 35°59' W 005°31'811.6
2015-Apr-10 15:33N 36°04' W 005°23'4 3.9
2015-Apr-10 14:29N 36°08' W 005°22'0 0.1
2015-Apr-10 13:32N 36°08' W 005°22'0 0.1
2015-Apr-10 12:32N 36°08' W 005°22'0 0.0
2015-Apr-10 11:32N 36°08' W 005°22'0 0.1
2015-Apr-10 10:32N 36°08' W 005°22'0 0.1
2015-Apr-10 09:29N 36°08' W 005°22'1 0.7
2015-Apr-10 08:33N 36°07' W 005°22'5 4.9
2015-Apr-10 07:33N 36°03' W 005°19'7 5.5
2015-Apr-10 06:19N 35°59' W 005°12'1 1.6
2015-Apr-10 05:31N 36°01' W 005°12'1 1.4
2015-Apr-10 04:31N 36°02' W 005°11'2 1.4
2015-Apr-10 03:10N 36°03' W 005°09'1 1.8
2015-Apr-10 02:21N 36°04' W 005°08'4 5.6
2015-Apr-10 01:33N 36°04' W 005°13'1 0.6
2015-Apr-10 00:33N 36°04' W 005°13'2 1.7
2015-Apr-09 23:14N 36°03' W 005°10'3 4.0
2015-Apr-09 22:33N 36°04' W 005°13'1 0.7
2015-Apr-09 21:34N 36°05' W 005°13'1 1.2
2015-Apr-09 20:34N 36°06' W 005°12'3 1.3
2015-Apr-09 18:30N 36°08' W 005°12'2 1.7
2015-Apr-09 17:03N 36°06' W 005°10'2 3.8
2015-Apr-09 16:34N 36°05' W 005°12'2 1.8
2015-Apr-09 15:31N 36°05' W 005°14'2 1.8
2015-Apr-09 14:32N 36°05' W 005°12'2 2.5
2015-Apr-09 13:33N 36°05' W 005°15'7 7.1
2015-Apr-09 12:33N 36°04' W 005°24'6 6.5
2015-Apr-09 11:33N 36°05' W 005°16'22011.5
2015-Apr-08 16:31N 36°37' W 000°46'4212.2
2015-Apr-08 13:03N 36°52' E 000°03'712.0
2015-Apr-08 12:28N 36°55' E 000°11'  
2015-Apr-06 01:33N 36°46' E 013°33'8 8.0
2015-Apr-06 00:34N 36°43' E 013°42'9 8.7
2015-Apr-05 23:33N 36°40' E 013°52'9 8.9
2015-Apr-05 22:33N 36°37' E 014°03'10 9.7
2015-Apr-05 21:33N 36°33' E 014°14'1010.2
2015-Apr-05 20:34N 36°29' E 014°26'47710.3
2015-Apr-03 22:04N 37°44' E 024°16'912.9
2015-Apr-03 21:23N 37°48' E 024°25'25511.7
2015-Apr-02 23:32N 40°45' E 028°23'1212.4
2015-Apr-02 22:33N 40°44' E 028°39'1312.6
2015-Apr-02 21:33N 40°45' E 028°56'1212.5
2015-Apr-02 20:33N 40°44' E 029°13'5 4.5
2015-Apr-02 19:33N 40°42' E 029°18'1 1.3
2015-Apr-02 18:33N 40°41' E 029°19'0 0.0
2015-Apr-02 17:33N 40°41' E 029°19'1 0.5
2015-Apr-02 16:33N 40°42' E 029°19'3 2.6
2015-Apr-02 15:33N 40°43' E 029°22'5 4.9
2015-Apr-02 14:33N 40°43' E 029°28'0 0.0
2015-Apr-02 13:27N 40°43' E 029°28'0 0.0
2015-Apr-02 12:33N 40°43' E 029°28'0 0.0
2015-Apr-02 11:33N 40°43' E 029°28'0 0.0
2015-Apr-02 10:33N 40°43' E 029°28'0 0.0
2015-Apr-02 09:33N 40°43' E 029°28'0 0.0
2015-Apr-02 08:33N 40°43' E 029°28'0 0.0
2015-Apr-02 07:33N 40°43' E 029°28'0 0.0
2015-Apr-02 06:33N 40°43' E 029°28'0 0.0
2015-Apr-01 15:33N 40°43' E 029°28'0 0.0
2015-Apr-01 12:03N 40°43' E 029°28'0 0.0
2015-Apr-01 11:21N 40°43' E 029°28'0 0.0
2015-Apr-01 07:33N 40°43' E 029°28'0 0.0
2015-Apr-01 06:27N 40°43' E 029°28'0 0.0
2015-Mar-31 23:27N 40°43' E 029°28'0 0.0
2015-Mar-31 22:15N 40°43' E 029°28'0 0.0
2015-Mar-31 19:21N 40°43' E 029°28'0 0.0
2015-Mar-31 18:27N 40°43' E 029°28'0 0.0
2015-Mar-31 16:27N 40°43' E 029°28'  
Track history (hours):
 
Tides and Currents Weather Stations Pressure Air Temp Water Temp Dewpoint Dewpoint Depression Visibility Wind Speed Wind Dir Waves Ship Positions

Atlantic Elm

Last reported at 2015-Apr-10 16:16 UTC. Time now 2015-May-05 10:13 UTC.
Position N 35°59' W 005°31'.
Warning: this ship's position is 24 days out of date.

Length 190 m; draft 6.3 m.

Type: Cargo ship. MMSI: 229081000.

Date/timePositionNaut miles runAvg speedWind from/ knotsBaromVisibWave heightAir tempDewpointWater temp
2015-Apr-10 16:16N 35°59' W 005°31'811.6
2015-Apr-10 15:33N 36°04' W 005°23'4 3.9
2015-Apr-10 14:29N 36°08' W 005°22'0 0.1
2015-Apr-10 13:32N 36°08' W 005°22'0 0.1
2015-Apr-10 12:32N 36°08' W 005°22'0 0.0
2015-Apr-10 11:32N 36°08' W 005°22'0 0.1
2015-Apr-10 10:32N 36°08' W 005°22'0 0.1
2015-Apr-10 09:29N 36°08' W 005°22'1 0.7
2015-Apr-10 08:33N 36°07' W 005°22'5 4.9
2015-Apr-10 07:33N 36°03' W 005°19'7 5.5
2015-Apr-10 06:19N 35°59' W 005°12'1 1.6
2015-Apr-10 05:31N 36°01' W 005°12'1 1.4
2015-Apr-10 04:31N 36°02' W 005°11'2 1.4
2015-Apr-10 03:10N 36°03' W 005°09'1 1.8
2015-Apr-10 02:21N 36°04' W 005°08'4 5.6
2015-Apr-10 01:33N 36°04' W 005°13'1 0.6
2015-Apr-10 00:33N 36°04' W 005°13'2 1.7
2015-Apr-09 23:14N 36°03' W 005°10'3 4.0
2015-Apr-09 22:33N 36°04' W 005°13'1 0.7
2015-Apr-09 21:34N 36°05' W 005°13'1 1.2
2015-Apr-09 20:34N 36°06' W 005°12'3 1.3
2015-Apr-09 18:30N 36°08' W 005°12'2 1.7
2015-Apr-09 17:03N 36°06' W 005°10'2 3.8
2015-Apr-09 16:34N 36°05' W 005°12'2 1.8
2015-Apr-09 15:31N 36°05' W 005°14'2 1.8
2015-Apr-09 14:32N 36°05' W 005°12'2 2.5
2015-Apr-09 13:33N 36°05' W 005°15'7 7.1
2015-Apr-09 12:33N 36°04' W 005°24'6 6.5
2015-Apr-09 11:33N 36°05' W 005°16'22011.5
2015-Apr-08 16:31N 36°37' W 000°46'4212.2
2015-Apr-08 13:03N 36°52' E 000°03'712.0
2015-Apr-08 12:28N 36°55' E 000°11'  
2015-Apr-06 01:33N 36°46' E 013°33'8 8.0
2015-Apr-06 00:34N 36°43' E 013°42'9 8.7
2015-Apr-05 23:33N 36°40' E 013°52'9 8.9
2015-Apr-05 22:33N 36°37' E 014°03'10 9.7
2015-Apr-05 21:33N 36°33' E 014°14'1010.2
2015-Apr-05 20:34N 36°29' E 014°26'47710.3
2015-Apr-03 22:04N 37°44' E 024°16'912.9
2015-Apr-03 21:23N 37°48' E 024°25'25511.7
2015-Apr-02 23:32N 40°45' E 028°23'1212.4
2015-Apr-02 22:33N 40°44' E 028°39'1312.6
2015-Apr-02 21:33N 40°45' E 028°56'1212.5
2015-Apr-02 20:33N 40°44' E 029°13'5 4.5
2015-Apr-02 19:33N 40°42' E 029°18'1 1.3
2015-Apr-02 18:33N 40°41' E 029°19'0 0.0
2015-Apr-02 17:33N 40°41' E 029°19'1 0.5
2015-Apr-02 16:33N 40°42' E 029°19'3 2.6
2015-Apr-02 15:33N 40°43' E 029°22'5 4.9
2015-Apr-02 14:33N 40°43' E 029°28'0 0.0
2015-Apr-02 13:27N 40°43' E 029°28'0 0.0
2015-Apr-02 12:33N 40°43' E 029°28'0 0.0
2015-Apr-02 11:33N 40°43' E 029°28'0 0.0
2015-Apr-02 10:33N 40°43' E 029°28'0 0.0
2015-Apr-02 09:33N 40°43' E 029°28'0 0.0
2015-Apr-02 08:33N 40°43' E 029°28'0 0.0
2015-Apr-02 07:33N 40°43' E 029°28'0 0.0
2015-Apr-02 06:33N 40°43' E 029°28'0 0.0
2015-Apr-01 15:33N 40°43' E 029°28'0 0.0
2015-Apr-01 12:03N 40°43' E 029°28'0 0.0
2015-Apr-01 11:21N 40°43' E 029°28'0 0.0
2015-Apr-01 07:33N 40°43' E 029°28'0 0.0
2015-Apr-01 06:27N 40°43' E 029°28'0 0.0
2015-Mar-31 23:27N 40°43' E 029°28'0 0.0
2015-Mar-31 22:15N 40°43' E 029°28'0 0.0
2015-Mar-31 19:21N 40°43' E 029°28'0 0.0
2015-Mar-31 18:27N 40°43' E 029°28'0 0.0
2015-Mar-31 16:27N 40°43' E 029°28'  

Dump ship's entire track history